sensor_id;sensor_type;location;lat;lon;timestamp;P1;durP1;ratioP1;P2;durP2;ratioP2
16199;SDS011;8207;52.494;4.654;2023-08-20T00:01:25;3.38;;;1.00;;
16199;SDS011;8207;52.494;4.654;2023-08-20T00:03:51;3.42;;;1.20;;
16199;SDS011;8207;52.494;4.654;2023-08-20T00:06:17;3.40;;;1.20;;
16199;SDS011;8207;52.494;4.654;2023-08-20T00:08:43;4.53;;;1.10;;
16199;SDS011;8207;52.494;4.654;2023-08-20T00:11:11;4.07;;;1.40;;
16199;SDS011;8207;52.494;4.654;2023-08-20T00:13:36;4.63;;;1.45;;
16199;SDS011;8207;52.494;4.654;2023-08-20T00:16:01;6.82;;;1.40;;
16199;SDS011;8207;52.494;4.654;2023-08-20T00:18:27;3.95;;;1.40;;
16199;SDS011;8207;52.494;4.654;2023-08-20T00:20:53;4.43;;;1.40;;
16199;SDS011;8207;52.494;4.654;2023-08-20T00:23:18;3.72;;;1.35;;
16199;SDS011;8207;52.494;4.654;2023-08-20T00:25:43;4.20;;;1.40;;
16199;SDS011;8207;52.494;4.654;2023-08-20T00:28:09;5.10;;;1.60;;
16199;SDS011;8207;52.494;4.654;2023-08-20T00:30:35;3.28;;;1.25;;
16199;SDS011;8207;52.494;4.654;2023-08-20T00:33:00;2.58;;;1.27;;
16199;SDS011;8207;52.494;4.654;2023-08-20T00:35:25;4.05;;;1.27;;
16199;SDS011;8207;52.494;4.654;2023-08-20T00:37:51;3.53;;;1.10;;
16199;SDS011;8207;52.494;4.654;2023-08-20T00:40:16;4.85;;;1.38;;
16199;SDS011;8207;52.494;4.654;2023-08-20T00:42:41;2.75;;;1.38;;
16199;SDS011;8207;52.494;4.654;2023-08-20T00:45:07;3.38;;;1.38;;
16199;SDS011;8207;52.494;4.654;2023-08-20T00:47:32;2.38;;;1.30;;
16199;SDS011;8207;52.494;4.654;2023-08-20T00:49:57;4.47;;;1.48;;
16199;SDS011;8207;52.494;4.654;2023-08-20T00:52:23;8.52;;;1.92;;
16199;SDS011;8207;52.494;4.654;2023-08-20T00:54:49;4.38;;;1.63;;
16199;SDS011;8207;52.494;4.654;2023-08-20T00:57:15;7.13;;;1.98;;
16199;SDS011;8207;52.494;4.654;2023-08-20T00:59:42;10.43;;;2.58;;
16199;SDS011;8207;52.494;4.654;2023-08-20T01:02:08;7.97;;;1.83;;
16199;SDS011;8207;52.494;4.654;2023-08-20T01:04:33;5.47;;;1.90;;
16199;SDS011;8207;52.494;4.654;2023-08-20T01:07:16;6.15;;;1.63;;
16199;SDS011;8207;52.494;4.654;2023-08-20T01:12:26;6.10;;;1.80;;
16199;SDS011;8207;52.494;4.654;2023-08-20T01:14:53;5.57;;;1.90;;
16199;SDS011;8207;52.494;4.654;2023-08-20T01:17:19;5.80;;;1.67;;
16199;SDS011;8207;52.494;4.654;2023-08-20T01:19:44;5.10;;;1.50;;
16199;SDS011;8207;52.494;4.654;2023-08-20T01:27:33;6.10;;;1.58;;
16199;SDS011;8207;52.494;4.654;2023-08-20T01:30:06;2.88;;;1.42;;
16199;SDS011;8207;52.494;4.654;2023-08-20T01:32:31;3.72;;;1.50;;
16199;SDS011;8207;52.494;4.654;2023-08-20T01:34:57;3.65;;;1.35;;
16199;SDS011;8207;52.494;4.654;2023-08-20T01:37:22;4.47;;;1.40;;
16199;SDS011;8207;52.494;4.654;2023-08-20T01:39:48;4.15;;;1.50;;
16199;SDS011;8207;52.494;4.654;2023-08-20T01:42:13;5.97;;;1.90;;
16199;SDS011;8207;52.494;4.654;2023-08-20T01:44:38;3.70;;;1.80;;
16199;SDS011;8207;52.494;4.654;2023-08-20T01:47:03;4.38;;;1.88;;
16199;SDS011;8207;52.494;4.654;2023-08-20T01:49:29;3.83;;;1.52;;
16199;SDS011;8207;52.494;4.654;2023-08-20T01:51:54;4.30;;;1.50;;
16199;SDS011;8207;52.494;4.654;2023-08-20T01:54:19;7.53;;;2.05;;
16199;SDS011;8207;52.494;4.654;2023-08-20T01:56:45;4.32;;;1.60;;
16199;SDS011;8207;52.494;4.654;2023-08-20T01:59:10;3.85;;;1.30;;
16199;SDS011;8207;52.494;4.654;2023-08-20T02:01:35;8.57;;;1.70;;
16199;SDS011;8207;52.494;4.654;2023-08-20T02:04:01;6.15;;;1.70;;
16199;SDS011;8207;52.494;4.654;2023-08-20T02:06:26;7.65;;;1.73;;
16199;SDS011;8207;52.494;4.654;2023-08-20T02:08:51;4.03;;;1.27;;
16199;SDS011;8207;52.494;4.654;2023-08-20T02:11:16;3.95;;;1.27;;
16199;SDS011;8207;52.494;4.654;2023-08-20T02:13:42;4.10;;;1.50;;
16199;SDS011;8207;52.494;4.654;2023-08-20T02:16:07;4.22;;;1.67;;
16199;SDS011;8207;52.494;4.654;2023-08-20T02:18:32;3.33;;;1.40;;
16199;SDS011;8207;52.494;4.654;2023-08-20T02:20:57;4.82;;;1.48;;
16199;SDS011;8207;52.494;4.654;2023-08-20T02:23:23;5.80;;;1.73;;
16199;SDS011;8207;52.494;4.654;2023-08-20T02:25:48;5.72;;;1.83;;
16199;SDS011;8207;52.494;4.654;2023-08-20T02:28:13;6.57;;;2.00;;
16199;SDS011;8207;52.494;4.654;2023-08-20T02:30:42;5.28;;;1.80;;
16199;SDS011;8207;52.494;4.654;2023-08-20T02:33:07;4.47;;;1.58;;
16199;SDS011;8207;52.494;4.654;2023-08-20T02:35:33;3.65;;;1.60;;
16199;SDS011;8207;52.494;4.654;2023-08-20T02:37:58;7.20;;;1.73;;
16199;SDS011;8207;52.494;4.654;2023-08-20T02:40:24;3.50;;;1.75;;
16199;SDS011;8207;52.494;4.654;2023-08-20T02:42:49;4.47;;;1.63;;
16199;SDS011;8207;52.494;4.654;2023-08-20T02:45:17;4.68;;;1.52;;
16199;SDS011;8207;52.494;4.654;2023-08-20T02:47:42;5.88;;;1.70;;
16199;SDS011;8207;52.494;4.654;2023-08-20T02:50:07;5.93;;;1.90;;
16199;SDS011;8207;52.494;4.654;2023-08-20T02:52:33;6.80;;;1.90;;
16199;SDS011;8207;52.494;4.654;2023-08-20T02:54:58;4.70;;;1.80;;
16199;SDS011;8207;52.494;4.654;2023-08-20T02:57:23;6.53;;;1.98;;
16199;SDS011;8207;52.494;4.654;2023-08-20T02:59:48;3.97;;;1.70;;
16199;SDS011;8207;52.494;4.654;2023-08-20T03:02:14;5.60;;;1.80;;
16199;SDS011;8207;52.494;4.654;2023-08-20T03:04:39;4.60;;;1.90;;
16199;SDS011;8207;52.494;4.654;2023-08-20T03:07:04;3.15;;;1.30;;
16199;SDS011;8207;52.494;4.654;2023-08-20T03:09:29;3.97;;;1.70;;
16199;SDS011;8207;52.494;4.654;2023-08-20T03:11:55;2.90;;;1.30;;
16199;SDS011;8207;52.494;4.654;2023-08-20T03:14:20;3.78;;;1.45;;
16199;SDS011;8207;52.494;4.654;2023-08-20T03:16:48;4.72;;;1.50;;
16199;SDS011;8207;52.494;4.654;2023-08-20T03:19:14;4.47;;;1.65;;
16199;SDS011;8207;52.494;4.654;2023-08-20T03:21:40;5.20;;;1.73;;
16199;SDS011;8207;52.494;4.654;2023-08-20T03:24:05;5.75;;;1.73;;
16199;SDS011;8207;52.494;4.654;2023-08-20T03:26:30;4.32;;;1.75;;
16199;SDS011;8207;52.494;4.654;2023-08-20T03:28:56;7.38;;;1.75;;
16199;SDS011;8207;52.494;4.654;2023-08-20T03:31:21;5.72;;;1.98;;
16199;SDS011;8207;52.494;4.654;2023-08-20T03:33:46;4.80;;;1.80;;
16199;SDS011;8207;52.494;4.654;2023-08-20T03:36:13;16.02;;;3.03;;
16199;SDS011;8207;52.494;4.654;2023-08-20T03:38:38;8.88;;;2.10;;
16199;SDS011;8207;52.494;4.654;2023-08-20T03:41:03;5.50;;;2.30;;
16199;SDS011;8207;52.494;4.654;2023-08-20T03:43:28;6.22;;;2.38;;
16199;SDS011;8207;52.494;4.654;2023-08-20T03:45:54;6.28;;;2.30;;
16199;SDS011;8207;52.494;4.654;2023-08-20T03:48:19;9.07;;;2.35;;
16199;SDS011;8207;52.494;4.654;2023-08-20T03:50:46;8.18;;;2.35;;
16199;SDS011;8207;52.494;4.654;2023-08-20T03:53:11;7.55;;;2.20;;
16199;SDS011;8207;52.494;4.654;2023-08-20T03:55:37;7.38;;;2.00;;
16199;SDS011;8207;52.494;4.654;2023-08-20T03:58:02;8.35;;;2.42;;
16199;SDS011;8207;52.494;4.654;2023-08-20T04:00:27;8.00;;;2.50;;
16199;SDS011;8207;52.494;4.654;2023-08-20T04:02:53;14.82;;;3.22;;
16199;SDS011;8207;52.494;4.654;2023-08-20T04:05:18;10.65;;;2.72;;
16199;SDS011;8207;52.494;4.654;2023-08-20T04:07:43;14.65;;;2.83;;
16199;SDS011;8207;52.494;4.654;2023-08-20T04:10:08;5.85;;;2.33;;
16199;SDS011;8207;52.494;4.654;2023-08-20T04:12:34;9.18;;;2.30;;
16199;SDS011;8207;52.494;4.654;2023-08-20T04:14:59;6.32;;;2.05;;
16199;SDS011;8207;52.494;4.654;2023-08-20T04:17:25;6.88;;;2.17;;
16199;SDS011;8207;52.494;4.654;2023-08-20T04:19:50;4.82;;;1.85;;
16199;SDS011;8207;52.494;4.654;2023-08-20T04:22:15;8.98;;;2.50;;
16199;SDS011;8207;52.494;4.654;2023-08-20T04:24:41;7.38;;;2.10;;
16199;SDS011;8207;52.494;4.654;2023-08-20T04:27:06;7.78;;;2.17;;
16199;SDS011;8207;52.494;4.654;2023-08-20T04:29:31;7.43;;;1.95;;
16199;SDS011;8207;52.494;4.654;2023-08-20T04:31:56;14.65;;;2.78;;
16199;SDS011;8207;52.494;4.654;2023-08-20T04:34:22;4.53;;;1.90;;
16199;SDS011;8207;52.494;4.654;2023-08-20T04:36:47;5.57;;;1.75;;
16199;SDS011;8207;52.494;4.654;2023-08-20T04:39:12;8.43;;;2.53;;
16199;SDS011;8207;52.494;4.654;2023-08-20T04:41:37;7.60;;;1.90;;
16199;SDS011;8207;52.494;4.654;2023-08-20T04:44:03;6.40;;;2.20;;
16199;SDS011;8207;52.494;4.654;2023-08-20T04:46:28;6.05;;;2.15;;
16199;SDS011;8207;52.494;4.654;2023-08-20T04:48:53;5.75;;;2.10;;
16199;SDS011;8207;52.494;4.654;2023-08-20T04:51:19;7.45;;;2.33;;
16199;SDS011;8207;52.494;4.654;2023-08-20T04:53:44;7.07;;;2.30;;
16199;SDS011;8207;52.494;4.654;2023-08-20T04:56:12;8.25;;;2.50;;
16199;SDS011;8207;52.494;4.654;2023-08-20T04:58:38;8.63;;;2.53;;
16199;SDS011;8207;52.494;4.654;2023-08-20T05:01:03;9.25;;;2.45;;
16199;SDS011;8207;52.494;4.654;2023-08-20T05:03:28;6.07;;;2.17;;
16199;SDS011;8207;52.494;4.654;2023-08-20T05:05:54;8.18;;;2.05;;
16199;SDS011;8207;52.494;4.654;2023-08-20T05:08:19;5.85;;;2.10;;
16199;SDS011;8207;52.494;4.654;2023-08-20T05:10:44;8.00;;;2.08;;
16199;SDS011;8207;52.494;4.654;2023-08-20T05:13:13;8.82;;;2.40;;
16199;SDS011;8207;52.494;4.654;2023-08-20T05:15:38;6.30;;;2.40;;
16199;SDS011;8207;52.494;4.654;2023-08-20T05:18:03;12.23;;;2.78;;
16199;SDS011;8207;52.494;4.654;2023-08-20T05:20:28;7.57;;;2.30;;
16199;SDS011;8207;52.494;4.654;2023-08-20T05:22:54;8.15;;;2.67;;
16199;SDS011;8207;52.494;4.654;2023-08-20T05:25:19;8.27;;;2.45;;
16199;SDS011;8207;52.494;4.654;2023-08-20T05:27:44;9.73;;;2.33;;
16199;SDS011;8207;52.494;4.654;2023-08-20T05:30:10;6.75;;;2.60;;
16199;SDS011;8207;52.494;4.654;2023-08-20T05:32:35;10.30;;;2.55;;
16199;SDS011;8207;52.494;4.654;2023-08-20T05:35:00;8.35;;;2.30;;
16199;SDS011;8207;52.494;4.654;2023-08-20T05:37:26;7.53;;;2.45;;
16199;SDS011;8207;52.494;4.654;2023-08-20T05:39:51;8.90;;;2.23;;
16199;SDS011;8207;52.494;4.654;2023-08-20T05:42:16;5.47;;;2.13;;
16199;SDS011;8207;52.494;4.654;2023-08-20T05:44:42;11.32;;;2.30;;
16199;SDS011;8207;52.494;4.654;2023-08-20T05:47:07;12.20;;;2.60;;
16199;SDS011;8207;52.494;4.654;2023-08-20T05:49:32;9.88;;;2.70;;
16199;SDS011;8207;52.494;4.654;2023-08-20T05:51:58;5.40;;;2.30;;
16199;SDS011;8207;52.494;4.654;2023-08-20T05:54:23;9.48;;;2.40;;
16199;SDS011;8207;52.494;4.654;2023-08-20T05:56:48;5.85;;;1.80;;
16199;SDS011;8207;52.494;4.654;2023-08-20T05:59:13;7.17;;;2.30;;
16199;SDS011;8207;52.494;4.654;2023-08-20T06:01:39;10.35;;;2.55;;
16199;SDS011;8207;52.494;4.654;2023-08-20T06:04:04;8.27;;;2.05;;
16199;SDS011;8207;52.494;4.654;2023-08-20T06:06:29;13.48;;;3.38;;
16199;SDS011;8207;52.494;4.654;2023-08-20T06:08:55;11.57;;;2.35;;
16199;SDS011;8207;52.494;4.654;2023-08-20T06:11:20;13.27;;;2.88;;
16199;SDS011;8207;52.494;4.654;2023-08-20T06:13:46;13.73;;;3.50;;
16199;SDS011;8207;52.494;4.654;2023-08-20T06:16:11;18.30;;;3.40;;
16199;SDS011;8207;52.494;4.654;2023-08-20T06:18:36;9.55;;;2.63;;
16199;SDS011;8207;52.494;4.654;2023-08-20T06:21:02;9.52;;;2.63;;
16199;SDS011;8207;52.494;4.654;2023-08-20T06:23:27;10.98;;;2.60;;
16199;SDS011;8207;52.494;4.654;2023-08-20T06:25:52;9.02;;;2.42;;
16199;SDS011;8207;52.494;4.654;2023-08-20T06:28:18;11.43;;;2.90;;
16199;SDS011;8207;52.494;4.654;2023-08-20T06:30:44;8.35;;;2.40;;
16199;SDS011;8207;52.494;4.654;2023-08-20T06:33:09;11.63;;;2.50;;
16199;SDS011;8207;52.494;4.654;2023-08-20T06:35:34;11.57;;;2.70;;
16199;SDS011;8207;52.494;4.654;2023-08-20T06:37:59;15.07;;;2.88;;
16199;SDS011;8207;52.494;4.654;2023-08-20T06:40:25;11.10;;;2.33;;
16199;SDS011;8207;52.494;4.654;2023-08-20T06:42:50;11.23;;;2.63;;
16199;SDS011;8207;52.494;4.654;2023-08-20T06:45:15;10.35;;;2.60;;
16199;SDS011;8207;52.494;4.654;2023-08-20T06:47:40;12.38;;;2.75;;
16199;SDS011;8207;52.494;4.654;2023-08-20T06:50:06;11.95;;;2.67;;
16199;SDS011;8207;52.494;4.654;2023-08-20T06:52:31;12.43;;;2.38;;
16199;SDS011;8207;52.494;4.654;2023-08-20T06:54:56;13.90;;;3.47;;
16199;SDS011;8207;52.494;4.654;2023-08-20T06:57:22;14.32;;;3.35;;
16199;SDS011;8207;52.494;4.654;2023-08-20T06:59:47;12.15;;;2.78;;
16199;SDS011;8207;52.494;4.654;2023-08-20T07:02:15;11.55;;;2.90;;
16199;SDS011;8207;52.494;4.654;2023-08-20T07:04:40;8.52;;;2.10;;
16199;SDS011;8207;52.494;4.654;2023-08-20T07:07:05;9.15;;;2.08;;
16199;SDS011;8207;52.494;4.654;2023-08-20T07:09:31;11.32;;;2.53;;
16199;SDS011;8207;52.494;4.654;2023-08-20T07:11:56;10.60;;;1.90;;
16199;SDS011;8207;52.494;4.654;2023-08-20T07:17:27;9.48;;;1.92;;
16199;SDS011;8207;52.494;4.654;2023-08-20T07:19:53;9.05;;;2.00;;
16199;SDS011;8207;52.494;4.654;2023-08-20T07:22:24;10.13;;;2.28;;
16199;SDS011;8207;52.494;4.654;2023-08-20T07:24:49;11.40;;;2.03;;
16199;SDS011;8207;52.494;4.654;2023-08-20T07:27:18;9.80;;;2.00;;
16199;SDS011;8207;52.494;4.654;2023-08-20T07:29:43;9.68;;;2.00;;
16199;SDS011;8207;52.494;4.654;2023-08-20T07:32:09;9.32;;;1.85;;
16199;SDS011;8207;52.494;4.654;2023-08-20T07:34:34;11.70;;;1.90;;
16199;SDS011;8207;52.494;4.654;2023-08-20T07:37:02;9.48;;;1.75;;
16199;SDS011;8207;52.494;4.654;2023-08-20T07:39:27;10.65;;;2.38;;
16199;SDS011;8207;52.494;4.654;2023-08-20T07:41:55;8.40;;;1.67;;
16199;SDS011;8207;52.494;4.654;2023-08-20T07:44:20;10.00;;;2.38;;
16199;SDS011;8207;52.494;4.654;2023-08-20T07:46:46;11.70;;;2.20;;
16199;SDS011;8207;52.494;4.654;2023-08-20T07:49:29;9.85;;;1.45;;
16199;SDS011;8207;52.494;4.654;2023-08-20T07:51:56;8.10;;;1.80;;
16199;SDS011;8207;52.494;4.654;2023-08-20T07:54:22;10.63;;;2.10;;
16199;SDS011;8207;52.494;4.654;2023-08-20T07:56:50;5.65;;;1.45;;
16199;SDS011;8207;52.494;4.654;2023-08-20T07:59:25;9.82;;;2.10;;
16199;SDS011;8207;52.494;4.654;2023-08-20T08:01:50;10.27;;;1.58;;
16199;SDS011;8207;52.494;4.654;2023-08-20T08:04:16;9.10;;;1.80;;
16199;SDS011;8207;52.494;4.654;2023-08-20T08:06:41;8.40;;;1.60;;
16199;SDS011;8207;52.494;4.654;2023-08-20T08:09:19;10.10;;;2.10;;
16199;SDS011;8207;52.494;4.654;2023-08-20T08:11:47;9.20;;;1.73;;
16199;SDS011;8207;52.494;4.654;2023-08-20T08:14:13;7.97;;;1.77;;
16199;SDS011;8207;52.494;4.654;2023-08-20T08:16:38;5.85;;;1.42;;
16199;SDS011;8207;52.494;4.654;2023-08-20T08:19:04;8.70;;;1.70;;
16199;SDS011;8207;52.494;4.654;2023-08-20T08:21:37;6.18;;;1.40;;
16199;SDS011;8207;52.494;4.654;2023-08-20T08:24:02;8.05;;;1.80;;
16199;SDS011;8207;52.494;4.654;2023-08-20T08:26:33;8.95;;;2.30;;
16199;SDS011;8207;52.494;4.654;2023-08-20T08:31:51;6.40;;;1.55;;
16199;SDS011;8207;52.494;4.654;2023-08-20T08:34:17;6.82;;;1.40;;
16199;SDS011;8207;52.494;4.654;2023-08-20T08:36:43;6.13;;;1.45;;
16199;SDS011;8207;52.494;4.654;2023-08-20T08:39:10;7.95;;;1.42;;
16199;SDS011;8207;52.494;4.654;2023-08-20T08:41:59;7.57;;;1.40;;
16199;SDS011;8207;52.494;4.654;2023-08-20T08:44:50;7.30;;;1.40;;
16199;SDS011;8207;52.494;4.654;2023-08-20T08:47:22;5.40;;;1.40;;
16199;SDS011;8207;52.494;4.654;2023-08-20T08:49:57;11.77;;;1.60;;
16199;SDS011;8207;52.494;4.654;2023-08-20T08:52:23;9.15;;;1.52;;
16199;SDS011;8207;52.494;4.654;2023-08-20T08:54:52;9.63;;;2.20;;
16199;SDS011;8207;52.494;4.654;2023-08-20T08:57:17;6.60;;;1.42;;
16199;SDS011;8207;52.494;4.654;2023-08-20T08:59:52;6.95;;;1.70;;
16199;SDS011;8207;52.494;4.654;2023-08-20T09:02:34;10.15;;;1.80;;
16199;SDS011;8207;52.494;4.654;2023-08-20T09:05:09;6.55;;;1.55;;
16199;SDS011;8207;52.494;4.654;2023-08-20T09:07:40;7.38;;;1.52;;
16199;SDS011;8207;52.494;4.654;2023-08-20T09:10:09;9.70;;;1.88;;
16199;SDS011;8207;52.494;4.654;2023-08-20T09:12:35;9.65;;;2.10;;
16199;SDS011;8207;52.494;4.654;2023-08-20T09:15:12;7.70;;;1.77;;
16199;SDS011;8207;52.494;4.654;2023-08-20T09:17:47;11.18;;;2.22;;
16199;SDS011;8207;52.494;4.654;2023-08-20T09:20:16;9.30;;;2.20;;
16199;SDS011;8207;52.494;4.654;2023-08-20T09:22:45;8.25;;;1.83;;
16199;SDS011;8207;52.494;4.654;2023-08-20T09:25:15;12.90;;;2.78;;
16199;SDS011;8207;52.494;4.654;2023-08-20T09:27:42;10.10;;;2.20;;
16199;SDS011;8207;52.494;4.654;2023-08-20T09:30:19;8.05;;;1.75;;
16199;SDS011;8207;52.494;4.654;2023-08-20T09:33:02;10.43;;;2.55;;
16199;SDS011;8207;52.494;4.654;2023-08-20T09:35:35;12.05;;;2.42;;
16199;SDS011;8207;52.494;4.654;2023-08-20T09:38:01;9.82;;;2.58;;
16199;SDS011;8207;52.494;4.654;2023-08-20T09:40:29;10.93;;;2.00;;
16199;SDS011;8207;52.494;4.654;2023-08-20T09:42:58;11.85;;;2.10;;
16199;SDS011;8207;52.494;4.654;2023-08-20T09:45:24;7.15;;;1.55;;
16199;SDS011;8207;52.494;4.654;2023-08-20T09:47:54;9.18;;;1.90;;
16199;SDS011;8207;52.494;4.654;2023-08-20T09:50:19;9.82;;;1.90;;
16199;SDS011;8207;52.494;4.654;2023-08-20T09:53:15;11.65;;;1.75;;
16199;SDS011;8207;52.494;4.654;2023-08-20T09:55:42;9.73;;;1.80;;
16199;SDS011;8207;52.494;4.654;2023-08-20T09:58:08;8.35;;;2.55;;
16199;SDS011;8207;52.494;4.654;2023-08-20T10:00:34;9.55;;;3.58;;
16199;SDS011;8207;52.494;4.654;2023-08-20T10:03:00;9.82;;;2.58;;
16199;SDS011;8207;52.494;4.654;2023-08-20T10:05:25;10.27;;;2.50;;
16199;SDS011;8207;52.494;4.654;2023-08-20T10:07:50;8.85;;;2.60;;
16199;SDS011;8207;52.494;4.654;2023-08-20T10:10:17;9.75;;;2.50;;
16199;SDS011;8207;52.494;4.654;2023-08-20T10:12:42;9.25;;;2.15;;
16199;SDS011;8207;52.494;4.654;2023-08-20T10:15:09;10.27;;;2.63;;
16199;SDS011;8207;52.494;4.654;2023-08-20T10:17:35;8.18;;;2.20;;
16199;SDS011;8207;52.494;4.654;2023-08-20T10:20:03;10.10;;;2.88;;
16199;SDS011;8207;52.494;4.654;2023-08-20T10:22:39;12.15;;;2.10;;
16199;SDS011;8207;52.494;4.654;2023-08-20T10:25:08;13.10;;;3.33;;
16199;SDS011;8207;52.494;4.654;2023-08-20T10:27:37;13.95;;;3.47;;
16199;SDS011;8207;52.494;4.654;2023-08-20T10:30:10;13.25;;;3.55;;
16199;SDS011;8207;52.494;4.654;2023-08-20T10:35:11;8.35;;;2.08;;
16199;SDS011;8207;52.494;4.654;2023-08-20T10:37:40;8.93;;;1.70;;
16199;SDS011;8207;52.494;4.654;2023-08-20T10:43:11;7.72;;;1.80;;
16199;SDS011;8207;52.494;4.654;2023-08-20T10:46:01;10.82;;;1.90;;
16199;SDS011;8207;52.494;4.654;2023-08-20T10:48:27;8.68;;;2.20;;
16199;SDS011;8207;52.494;4.654;2023-08-20T10:50:52;7.95;;;1.70;;
16199;SDS011;8207;52.494;4.654;2023-08-20T10:53:18;5.90;;;1.38;;
16199;SDS011;8207;52.494;4.654;2023-08-20T10:55:49;7.85;;;1.48;;
16199;SDS011;8207;52.494;4.654;2023-08-20T10:58:17;9.27;;;1.85;;
16199;SDS011;8207;52.494;4.654;2023-08-20T11:00:42;8.13;;;1.33;;
16199;SDS011;8207;52.494;4.654;2023-08-20T11:03:08;7.78;;;1.80;;
16199;SDS011;8207;52.494;4.654;2023-08-20T11:05:35;6.43;;;1.70;;
16199;SDS011;8207;52.494;4.654;2023-08-20T11:08:01;7.28;;;1.35;;
16199;SDS011;8207;52.494;4.654;2023-08-20T11:10:28;6.30;;;1.80;;
16199;SDS011;8207;52.494;4.654;2023-08-20T11:12:54;8.57;;;1.90;;
16199;SDS011;8207;52.494;4.654;2023-08-20T11:15:19;9.20;;;2.20;;
16199;SDS011;8207;52.494;4.654;2023-08-20T11:17:46;6.72;;;1.60;;
16199;SDS011;8207;52.494;4.654;2023-08-20T11:20:12;10.60;;;2.08;;
16199;SDS011;8207;52.494;4.654;2023-08-20T11:22:38;7.90;;;1.50;;
16199;SDS011;8207;52.494;4.654;2023-08-20T11:27:58;6.85;;;1.75;;
16199;SDS011;8207;52.494;4.654;2023-08-20T11:30:28;10.93;;;1.90;;
16199;SDS011;8207;52.494;4.654;2023-08-20T11:32:54;7.13;;;1.70;;
16199;SDS011;8207;52.494;4.654;2023-08-20T11:35:22;8.40;;;1.33;;
16199;SDS011;8207;52.494;4.654;2023-08-20T11:37:47;7.13;;;1.50;;
16199;SDS011;8207;52.494;4.654;2023-08-20T11:40:13;5.78;;;1.27;;
16199;SDS011;8207;52.494;4.654;2023-08-20T11:42:39;7.45;;;1.50;;
16199;SDS011;8207;52.494;4.654;2023-08-20T11:45:05;5.95;;;1.38;;
16199;SDS011;8207;52.494;4.654;2023-08-20T11:47:38;12.07;;;2.08;;
16199;SDS011;8207;52.494;4.654;2023-08-20T11:50:14;6.03;;;1.17;;
16199;SDS011;8207;52.494;4.654;2023-08-20T11:52:39;5.80;;;1.35;;
16199;SDS011;8207;52.494;4.654;2023-08-20T11:55:05;7.75;;;1.23;;
16199;SDS011;8207;52.494;4.654;2023-08-20T11:57:31;6.03;;;1.30;;
16199;SDS011;8207;52.494;4.654;2023-08-20T12:00:01;5.22;;;1.08;;
16199;SDS011;8207;52.494;4.654;2023-08-20T12:02:29;6.03;;;1.00;;
16199;SDS011;8207;52.494;4.654;2023-08-20T12:04:57;8.23;;;2.13;;
16199;SDS011;8207;52.494;4.654;2023-08-20T12:07:26;6.40;;;1.50;;
16199;SDS011;8207;52.494;4.654;2023-08-20T12:09:52;6.38;;;1.40;;
16199;SDS011;8207;52.494;4.654;2023-08-20T12:12:20;5.25;;;1.38;;
16199;SDS011;8207;52.494;4.654;2023-08-20T12:14:46;7.57;;;1.80;;
16199;SDS011;8207;52.494;4.654;2023-08-20T12:17:16;9.82;;;1.90;;
16199;SDS011;8207;52.494;4.654;2023-08-20T12:19:41;9.55;;;2.50;;
16199;SDS011;8207;52.494;4.654;2023-08-20T12:22:06;4.80;;;1.30;;
16199;SDS011;8207;52.494;4.654;2023-08-20T12:24:33;8.18;;;2.08;;
16199;SDS011;8207;52.494;4.654;2023-08-20T12:26:58;7.03;;;1.60;;
16199;SDS011;8207;52.494;4.654;2023-08-20T12:29:27;6.15;;;1.60;;
16199;SDS011;8207;52.494;4.654;2023-08-20T12:31:53;5.70;;;1.60;;
16199;SDS011;8207;52.494;4.654;2023-08-20T12:34:18;11.35;;;2.50;;
16199;SDS011;8207;52.494;4.654;2023-08-20T12:36:43;7.03;;;1.67;;
16199;SDS011;8207;52.494;4.654;2023-08-20T12:39:08;7.43;;;1.90;;
16199;SDS011;8207;52.494;4.654;2023-08-20T12:41:34;6.95;;;1.88;;
16199;SDS011;8207;52.494;4.654;2023-08-20T12:44:01;8.57;;;2.65;;
16199;SDS011;8207;52.494;4.654;2023-08-20T12:46:26;6.05;;;1.70;;
16199;SDS011;8207;52.494;4.654;2023-08-20T12:48:52;8.98;;;2.40;;
16199;SDS011;8207;52.494;4.654;2023-08-20T12:51:17;6.03;;;2.10;;
16199;SDS011;8207;52.494;4.654;2023-08-20T12:53:42;9.48;;;2.63;;
16199;SDS011;8207;52.494;4.654;2023-08-20T12:56:08;7.95;;;1.90;;
16199;SDS011;8207;52.494;4.654;2023-08-20T12:58:33;11.77;;;2.20;;
16199;SDS011;8207;52.494;4.654;2023-08-20T13:00:58;8.15;;;2.00;;
16199;SDS011;8207;52.494;4.654;2023-08-20T13:03:24;7.95;;;2.05;;
16199;SDS011;8207;52.494;4.654;2023-08-20T13:05:49;7.43;;;1.35;;
16199;SDS011;8207;52.494;4.654;2023-08-20T13:08:15;5.78;;;1.10;;
16199;SDS011;8207;52.494;4.654;2023-08-20T13:10:40;7.35;;;1.73;;
16199;SDS011;8207;52.494;4.654;2023-08-20T13:13:06;8.23;;;1.90;;
16199;SDS011;8207;52.494;4.654;2023-08-20T13:15:33;6.38;;;1.70;;
16199;SDS011;8207;52.494;4.654;2023-08-20T13:17:59;7.63;;;1.73;;
16199;SDS011;8207;52.494;4.654;2023-08-20T13:20:27;9.18;;;1.85;;
16199;SDS011;8207;52.494;4.654;2023-08-20T13:22:55;6.82;;;1.40;;
16199;SDS011;8207;52.494;4.654;2023-08-20T13:25:20;10.35;;;1.70;;
16199;SDS011;8207;52.494;4.654;2023-08-20T13:27:49;8.85;;;1.70;;
16199;SDS011;8207;52.494;4.654;2023-08-20T13:30:14;5.50;;;1.60;;
16199;SDS011;8207;52.494;4.654;2023-08-20T13:32:40;7.43;;;1.50;;
16199;SDS011;8207;52.494;4.654;2023-08-20T13:35:05;7.88;;;1.75;;
16199;SDS011;8207;52.494;4.654;2023-08-20T13:37:31;7.50;;;1.90;;
16199;SDS011;8207;52.494;4.654;2023-08-20T13:39:58;6.47;;;2.05;;
16199;SDS011;8207;52.494;4.654;2023-08-20T13:42:24;7.22;;;1.80;;
16199;SDS011;8207;52.494;4.654;2023-08-20T13:44:51;8.82;;;2.40;;
16199;SDS011;8207;52.494;4.654;2023-08-20T13:47:17;9.27;;;2.42;;
16199;SDS011;8207;52.494;4.654;2023-08-20T13:49:42;5.15;;;1.70;;
16199;SDS011;8207;52.494;4.654;2023-08-20T13:52:08;5.90;;;1.30;;
16199;SDS011;8207;52.494;4.654;2023-08-20T13:54:34;5.70;;;1.10;;
16199;SDS011;8207;52.494;4.654;2023-08-20T13:57:00;5.10;;;1.33;;
16199;SDS011;8207;52.494;4.654;2023-08-20T13:59:25;6.60;;;1.33;;
16199;SDS011;8207;52.494;4.654;2023-08-20T14:01:50;8.15;;;1.70;;
16199;SDS011;8207;52.494;4.654;2023-08-20T14:04:16;8.95;;;2.13;;
16199;SDS011;8207;52.494;4.654;2023-08-20T14:06:41;12.07;;;2.53;;
16199;SDS011;8207;52.494;4.654;2023-08-20T14:09:09;9.45;;;2.22;;
16199;SDS011;8207;52.494;4.654;2023-08-20T14:11:35;8.10;;;2.00;;
16199;SDS011;8207;52.494;4.654;2023-08-20T14:14:00;10.18;;;1.88;;
16199;SDS011;8207;52.494;4.654;2023-08-20T14:16:28;9.52;;;2.08;;
16199;SDS011;8207;52.494;4.654;2023-08-20T14:18:53;10.30;;;1.95;;
16199;SDS011;8207;52.494;4.654;2023-08-20T14:21:18;6.97;;;1.63;;
16199;SDS011;8207;52.494;4.654;2023-08-20T14:23:46;7.68;;;1.90;;
16199;SDS011;8207;52.494;4.654;2023-08-20T14:26:12;6.15;;;1.42;;
16199;SDS011;8207;52.494;4.654;2023-08-20T14:28:37;5.70;;;1.47;;
16199;SDS011;8207;52.494;4.654;2023-08-20T14:31:03;5.75;;;1.70;;
16199;SDS011;8207;52.494;4.654;2023-08-20T14:33:29;5.63;;;1.45;;
16199;SDS011;8207;52.494;4.654;2023-08-20T14:35:54;6.00;;;1.50;;
16199;SDS011;8207;52.494;4.654;2023-08-20T14:38:19;9.00;;;2.08;;
16199;SDS011;8207;52.494;4.654;2023-08-20T14:40:45;3.80;;;1.10;;
16199;SDS011;8207;52.494;4.654;2023-08-20T14:43:10;7.38;;;1.30;;
16199;SDS011;8207;52.494;4.654;2023-08-20T14:45:35;4.93;;;1.30;;
16199;SDS011;8207;52.494;4.654;2023-08-20T14:48:00;7.50;;;1.65;;
16199;SDS011;8207;52.494;4.654;2023-08-20T14:50:26;4.60;;;1.20;;
16199;SDS011;8207;52.494;4.654;2023-08-20T14:52:53;5.63;;;1.60;;
16199;SDS011;8207;52.494;4.654;2023-08-20T14:55:19;5.43;;;1.17;;
16199;SDS011;8207;52.494;4.654;2023-08-20T14:57:44;4.68;;;1.15;;
16199;SDS011;8207;52.494;4.654;2023-08-20T15:00:10;6.60;;;1.30;;
16199;SDS011;8207;52.494;4.654;2023-08-20T15:02:39;4.50;;;0.98;;
16199;SDS011;8207;52.494;4.654;2023-08-20T15:05:04;5.78;;;1.35;;
16199;SDS011;8207;52.494;4.654;2023-08-20T15:07:29;7.55;;;1.50;;
16199;SDS011;8207;52.494;4.654;2023-08-20T15:09:55;4.87;;;0.93;;
16199;SDS011;8207;52.494;4.654;2023-08-20T15:12:20;4.20;;;1.00;;
16199;SDS011;8207;52.494;4.654;2023-08-20T15:14:45;6.95;;;1.35;;
16199;SDS011;8207;52.494;4.654;2023-08-20T15:17:10;7.15;;;1.05;;